Time;durP1;ratioP1;P1;durP2;ratioP2;P2;SDS_P1;SDS_P2;PMS_P1;PMS_P2;Temp;Humidity;BMP_temperature;BMP_pressure;BME280_temperature;BME280_humidity;BME280_pressure;Samples;Min_cycle;Max_cycle;Signal;HPM_P1;HPM_P2
2022/01/26 00:05:46;;;;;;;53.67;25.93;;;;;;;;;;4997147;28;20909;-82
2022/01/26 00:06:26;;;;;;;46.40;24.03;;;;;;;;;;4975369;28;20425;-81
2022/01/26 00:08:53;;;;;;;50.70;26.83;;;;;;;;;;4959563;28;20421;-82
2022/01/26 00:11:19;;;;;;;54.20;27.10;;;;;;;;;;4975246;28;20571;-82
2022/01/26 00:13:45;;;;;;;48.70;23.70;;;;;;;;;;4996552;28;20416;-82
2022/01/26 00:16:23;;;;;;;51.27;24.50;;;;;;;;;;4997462;28;20527;-83
2022/01/26 00:18:50;;;;;;;57.93;26.57;;;;;;;;;;4995977;28;20924;-80
2022/01/26 00:21:26;;;;;;;43.07;24.47;;;;;;;;;;4998762;28;20456;-82
2022/01/26 00:26:38;;;;;;;53.83;25.60;;;;;;;;;;4998663;28;20457;-80
2022/01/26 00:29:13;;;;;;;46.17;23.27;;;;;;;;;;4996527;28;20393;-83
2022/01/26 00:40:04;;;;;;;49.67;23.83;;;;;;;;;;4998119;28;20419;-82
2022/01/26 00:42:36;;;;;;;55.77;27.87;;;;;;;;;;4998859;28;20392;-82
2022/01/26 00:45:02;;;;;;;57.63;26.70;;;;;;;;;;5000345;28;20452;-82
2022/01/26 00:47:28;;;;;;;52.00;25.70;;;;;;;;;;4997796;28;20434;-82
2022/01/26 00:49:59;;;;;;;54.50;27.00;;;;;;;;;;4997554;28;20405;-83
2022/01/26 00:52:52;;;;;;;55.67;27.60;;;;;;;;;;4997209;28;20539;-82
2022/01/26 00:55:16;;;;;;;58.80;27.90;;;;;;;;;;4996758;28;20413;-82
2022/01/26 00:57:42;;;;;;;53.53;26.17;;;;;;;;;;4996695;28;20421;-82
2022/01/26 01:00:11;;;;;;;52.87;25.17;;;;;;;;;;4996969;28;20444;-82
2022/01/26 01:02:37;;;;;;;57.07;26.77;;;;;;;;;;4995784;28;20940;-82
2022/01/26 01:05:12;;;;;;;47.30;27.37;;;;;;;;;;4997118;28;20830;-82
2022/01/26 01:07:40;;;;;;;45.63;23.70;;;;;;;;;;4997403;28;20777;-82
2022/01/26 01:10:06;;;;;;;55.17;26.13;;;;;;;;;;4995621;28;20412;-83
2022/01/26 01:12:38;;;;;;;49.93;24.73;;;;;;;;;;4996162;28;20430;-82
2022/01/26 01:15:04;;;;;;;56.17;25.20;;;;;;;;;;4997538;28;20471;-82
2022/01/26 01:17:37;;;;;;;51.67;26.07;;;;;;;;;;4997549;28;20425;-82
2022/01/26 01:30:53;;;;;;;43.50;22.93;;;;;;;;;;5016010;28;20799;-77
2022/01/26 01:33:23;;;;;;;42.70;21.57;;;;;;;;;;5016606;28;20399;-77
2022/01/26 01:35:50;;;;;;;49.33;26.23;;;;;;;;;;5016679;28;20486;-77
2022/01/26 01:38:18;;;;;;;62.67;28.07;;;;;;;;;;5016094;28;20430;-77
2022/01/26 01:40:46;;;;;;;47.20;22.93;;;;;;;;;;5016689;28;20411;-77
2022/01/26 01:43:13;;;;;;;50.60;26.60;;;;;;;;;;5016685;28;20402;-77
2022/01/26 01:45:43;;;;;;;50.80;25.73;;;;;;;;;;5016428;28;20495;-77
2022/01/26 01:48:11;;;;;;;59.77;26.20;;;;;;;;;;5016990;28;20426;-77
2022/01/26 01:50:41;;;;;;;51.60;23.90;;;;;;;;;;5020055;28;20496;-77
2022/01/26 01:53:08;;;;;;;50.43;25.57;;;;;;;;;;5016670;28;20408;-77
2022/01/26 01:55:34;;;;;;;42.70;23.33;;;;;;;;;;5016270;28;20769;-77
2022/01/26 01:58:00;;;;;;;50.07;25.50;;;;;;;;;;5015853;28;20419;-77
2022/01/26 02:00:28;;;;;;;40.50;23.00;;;;;;;;;;5016537;28;20892;-77
2022/01/26 02:02:54;;;;;;;45.43;23.60;;;;;;;;;;5016424;28;20418;-77
2022/01/26 02:05:20;;;;;;;43.97;24.30;;;;;;;;;;5016189;28;20502;-77
2022/01/26 02:07:46;;;;;;;42.30;24.00;;;;;;;;;;5015582;28;20451;-77
2022/01/26 02:10:12;;;;;;;34.57;20.10;;;;;;;;;;5016060;28;20818;-77
2022/01/26 02:12:44;;;;;;;43.80;23.73;;;;;;;;;;5015629;28;20483;-77
2022/01/26 02:15:16;;;;;;;48.87;23.57;;;;;;;;;;5015722;28;20400;-76
2022/01/26 02:55:51;;;;;;;41.13;21.87;;;;;;;;;;4995210;28;20915;-77
2022/01/26 03:01:24;;;;;;;36.30;18.50;;;;;;;;;;4995202;28;20392;-77
2022/01/26 03:06:23;;;;;;;41.73;21.90;;;;;;;;;;4994957;28;20427;-77
2022/01/26 03:08:56;;;;;;;49.40;24.50;;;;;;;;;;4995146;28;20400;-77
2022/01/26 03:11:26;;;;;;;54.67;23.40;;;;;;;;;;4995034;28;20448;-77
2022/01/26 03:14:00;;;;;;;47.23;24.20;;;;;;;;;;4993838;28;20497;-77
2022/01/26 03:16:36;;;;;;;42.73;23.53;;;;;;;;;;4995036;28;20467;-77
2022/01/26 03:19:16;;;;;;;49.47;23.23;;;;;;;;;;4995600;28;20476;-76
2022/01/26 03:28:10;;;;;;;48.13;22.87;;;;;;;;;;4995179;28;20436;-77
2022/01/26 03:38:47;;;;;;;41.57;21.40;;;;;;;;;;5014192;28;20411;-76
2022/01/26 03:41:19;;;;;;;40.20;20.80;;;;;;;;;;5012113;28;20837;-76
2022/01/26 03:43:45;;;;;;;49.93;22.90;;;;;;;;;;5013592;28;20368;-76
2022/01/26 03:46:11;;;;;;;40.90;20.83;;;;;;;;;;5013726;28;20423;-76
2022/01/26 03:48:37;;;;;;;42.67;24.10;;;;;;;;;;5014216;28;20757;-76
2022/01/26 03:51:03;;;;;;;43.20;23.20;;;;;;;;;;5013964;28;20451;-76
2022/01/26 03:53:29;;;;;;;40.97;21.50;;;;;;;;;;5013873;28;20404;-76
2022/01/26 03:55:55;;;;;;;40.90;22.10;;;;;;;;;;5013633;28;20406;-76
2022/01/26 03:58:21;;;;;;;44.07;23.03;;;;;;;;;;5013802;28;20842;-76
2022/01/26 04:00:47;;;;;;;34.40;21.00;;;;;;;;;;5013966;28;20787;-76
2022/01/26 04:03:14;;;;;;;45.17;22.40;;;;;;;;;;5013738;28;20777;-76
2022/01/26 04:05:40;;;;;;;42.20;21.60;;;;;;;;;;5009303;28;20428;-75
2022/01/26 04:08:13;;;;;;;34.03;20.30;;;;;;;;;;5002311;28;20471;-76
2022/01/26 04:13:05;;;;;;;47.80;22.30;;;;;;;;;;4993830;28;20412;-76
2022/01/26 04:15:35;;;;;;;44.53;23.40;;;;;;;;;;4994581;28;20462;-77
2022/01/26 04:18:02;;;;;;;40.07;20.93;;;;;;;;;;4994043;28;20492;-76
2022/01/26 04:20:33;;;;;;;39.93;21.97;;;;;;;;;;4992774;28;20470;-76
2022/01/26 04:25:40;;;;;;;40.50;21.60;;;;;;;;;;4994018;28;20416;-76
2022/01/26 04:28:10;;;;;;;44.00;23.23;;;;;;;;;;4993609;28;20437;-76
2022/01/26 04:30:36;;;;;;;44.07;22.67;;;;;;;;;;4994296;28;20449;-76
2022/01/26 04:33:05;;;;;;;44.07;22.50;;;;;;;;;;4993799;28;20411;-76
2022/01/26 04:35:31;;;;;;;40.77;22.70;;;;;;;;;;4993900;28;20408;-76
2022/01/26 04:40:36;;;;;;;51.40;23.20;;;;;;;;;;4993874;28;20392;-76
2022/01/26 04:43:07;;;;;;;44.40;22.23;;;;;;;;;;4992517;28;20427;-76
2022/01/26 04:45:33;;;;;;;40.80;21.77;;;;;;;;;;5005132;28;20490;-76
2022/01/26 04:47:59;;;;;;;51.50;23.10;;;;;;;;;;5013547;28;20420;-76
2022/01/26 04:50:25;;;;;;;40.03;20.87;;;;;;;;;;5014071;28;20403;-76
2022/01/26 04:52:51;;;;;;;42.83;23.63;;;;;;;;;;5014411;28;20399;-76
2022/01/26 04:55:18;;;;;;;38.60;20.60;;;;;;;;;;5015216;28;20399;-76
2022/01/26 04:57:44;;;;;;;38.73;22.00;;;;;;;;;;5018339;28;20427;-77
2022/01/26 05:00:10;;;;;;;39.40;21.97;;;;;;;;;;5016234;28;20412;-76
2022/01/26 05:02:36;;;;;;;38.57;20.00;;;;;;;;;;5017627;28;20433;-77
2022/01/26 05:05:02;;;;;;;37.63;20.03;;;;;;;;;;5017354;28;20903;-76
2022/01/26 05:07:28;;;;;;;40.37;22.23;;;;;;;;;;5017008;28;20453;-76
2022/01/26 05:09:54;;;;;;;38.50;20.90;;;;;;;;;;5017355;28;20438;-76
2022/01/26 05:12:21;;;;;;;44.17;23.97;;;;;;;;;;5017172;28;20455;-76
2022/01/26 05:14:48;;;;;;;42.60;23.00;;;;;;;;;;5018037;28;20769;-76
2022/01/26 05:17:19;;;;;;;39.90;20.90;;;;;;;;;;5017243;28;20423;-76
2022/01/26 05:19:45;;;;;;;35.87;19.40;;;;;;;;;;5017158;28;20424;-76
2022/01/26 05:22:11;;;;;;;34.93;19.70;;;;;;;;;;5016980;28;20411;-76
2022/01/26 05:24:37;;;;;;;33.20;19.10;;;;;;;;;;5016881;28;20780;-76
2022/01/26 05:27:04;;;;;;;36.83;18.37;;;;;;;;;;5016264;28;20478;-76
2022/01/26 05:29:30;;;;;;;31.57;18.53;;;;;;;;;;5016617;28;20442;-76
2022/01/26 05:31:56;;;;;;;34.63;17.93;;;;;;;;;;5016622;28;20446;-76
2022/01/26 05:34:22;;;;;;;33.90;19.33;;;;;;;;;;5018231;28;20435;-76
2022/01/26 05:36:48;;;;;;;32.90;18.43;;;;;;;;;;5015023;28;20442;-76
2022/01/26 05:39:14;;;;;;;28.37;16.50;;;;;;;;;;5016628;28;20447;-76
2022/01/26 05:41:40;;;;;;;35.47;19.73;;;;;;;;;;5016732;28;20461;-76
2022/01/26 05:44:07;;;;;;;31.20;17.40;;;;;;;;;;5016289;28;20415;-76
2022/01/26 05:46:41;;;;;;;27.40;16.43;;;;;;;;;;5015600;28;20453;-77
2022/01/26 05:49:08;;;;;;;27.73;15.40;;;;;;;;;;5018026;28;20842;-76
2022/01/26 05:51:34;;;;;;;21.83;14.77;;;;;;;;;;5016407;28;20988;-76
2022/01/26 05:54:02;;;;;;;19.70;12.90;;;;;;;;;;5015123;28;20448;-76
2022/01/26 05:56:29;;;;;;;23.27;13.50;;;;;;;;;;5016248;28;20431;-76
2022/01/26 05:58:55;;;;;;;21.60;13.57;;;;;;;;;;5016048;28;20404;-76
2022/01/26 06:01:21;;;;;;;23.20;12.57;;;;;;;;;;5016106;28;20498;-76
2022/01/26 06:03:48;;;;;;;21.20;13.87;;;;;;;;;;5017292;28;20434;-76
2022/01/26 06:06:15;;;;;;;18.37;13.30;;;;;;;;;;5015239;28;20410;-76
2022/01/26 06:08:42;;;;;;;19.30;11.80;;;;;;;;;;5016046;28;20761;-76
2022/01/26 06:11:08;;;;;;;25.57;14.43;;;;;;;;;;5015866;28;20442;-76
2022/01/26 06:13:34;;;;;;;17.20;11.30;;;;;;;;;;5015988;28;20400;-76
2022/01/26 06:16:00;;;;;;;17.80;11.60;;;;;;;;;;5015429;28;20751;-76
2022/01/26 06:18:26;;;;;;;16.70;11.67;;;;;;;;;;5015710;28;20851;-76
2022/01/26 06:20:52;;;;;;;22.50;14.13;;;;;;;;;;5015585;28;20412;-76
2022/01/26 06:23:24;;;;;;;15.57;11.67;;;;;;;;;;5014351;28;20439;-76
2022/01/26 06:25:51;;;;;;;21.20;13.20;;;;;;;;;;5010571;28;20795;-77
2022/01/26 06:28:17;;;;;;;21.53;12.53;;;;;;;;;;5018980;28;21620;-77
2022/01/26 06:30:47;;;;;;;24.73;13.57;;;;;;;;;;5021618;28;20998;-77
2022/01/26 06:33:13;;;;;;;21.90;14.70;;;;;;;;;;5022487;28;20412;-77
2022/01/26 06:35:40;;;;;;;17.00;11.50;;;;;;;;;;5024185;28;20420;-77
2022/01/26 06:38:06;;;;;;;17.97;12.20;;;;;;;;;;5019162;28;20436;-77
2022/01/26 06:40:33;;;;;;;19.07;12.80;;;;;;;;;;5019836;28;20469;-76
2022/01/26 06:43:03;;;;;;;27.43;14.80;;;;;;;;;;5019303;28;20842;-77
2022/01/26 06:45:33;;;;;;;22.70;10.90;;;;;;;;;;5017127;28;20412;-77
2022/01/26 06:50:45;;;;;;;20.80;13.40;;;;;;;;;;5016617;28;20488;-77
2022/01/26 06:53:13;;;;;;;18.98;12.63;;;;;;;;;;5016758;28;20489;-77
2022/01/26 06:55:39;;;;;;;21.20;14.00;;;;;;;;;;5016372;28;20165;-77
2022/01/26 06:58:05;;;;;;;19.93;13.50;;;;;;;;;;5015441;28;20434;-76
2022/01/26 07:00:32;;;;;;;18.73;12.80;;;;;;;;;;5019155;28;20454;-77
2022/01/26 07:02:58;;;;;;;19.90;13.10;;;;;;;;;;5015802;28;20168;-77
2022/01/26 07:05:24;;;;;;;18.00;11.43;;;;;;;;;;5016380;28;20454;-77
2022/01/26 07:07:50;;;;;;;17.20;11.57;;;;;;;;;;5012341;28;20458;-77
2022/01/26 07:10:16;;;;;;;20.13;11.53;;;;;;;;;;5017581;28;20435;-77
2022/01/26 07:12:42;;;;;;;18.00;11.70;;;;;;;;;;5019383;28;20447;-76
2022/01/26 07:23:13;;;;;;;17.40;12.37;;;;;;;;;;5016476;28;20415;-76
2022/01/26 07:25:40;;;;;;;20.10;12.20;;;;;;;;;;5017462;28;20464;-76
2022/01/26 07:28:06;;;;;;;20.10;13.07;;;;;;;;;;5017363;28;20527;-77
2022/01/26 07:30:35;;;;;;;26.70;14.40;;;;;;;;;;5015768;28;20554;-76
2022/01/26 07:33:01;;;;;;;23.10;13.13;;;;;;;;;;5016452;28;20772;-76
2022/01/26 07:35:32;;;;;;;22.67;14.23;;;;;;;;;;5015352;28;20942;-76
2022/01/26 07:38:00;;;;;;;21.60;13.53;;;;;;;;;;5015132;28;20455;-77
2022/01/26 07:40:26;;;;;;;20.70;13.70;;;;;;;;;;5011694;28;20431;-76
2022/01/26 07:42:52;;;;;;;25.50;13.83;;;;;;;;;;5015898;28;20474;-75
2022/01/26 07:45:19;;;;;;;20.33;13.27;;;;;;;;;;5015546;28;20404;-75
2022/01/26 07:47:46;;;;;;;23.63;12.77;;;;;;;;;;5014449;28;20423;-76
2022/01/26 07:50:14;;;;;;;21.73;13.30;;;;;;;;;;5007911;28;20416;-76
2022/01/26 07:52:42;;;;;;;26.30;14.80;;;;;;;;;;4995748;28;20553;-76
2022/01/26 07:55:11;;;;;;;24.27;14.13;;;;;;;;;;5011530;28;20415;-75
2022/01/26 07:57:37;;;;;;;21.57;14.33;;;;;;;;;;5018728;28;20451;-76
2022/01/26 08:00:04;;;;;;;23.03;14.07;;;;;;;;;;4993686;28;20450;-75
2022/01/26 08:02:30;;;;;;;27.43;13.37;;;;;;;;;;5014424;28;20427;-75
2022/01/26 08:04:57;;;;;;;22.63;14.07;;;;;;;;;;5009645;28;20432;-76
2022/01/26 08:07:23;;;;;;;26.57;14.23;;;;;;;;;;5012886;28;20450;-76
2022/01/26 08:09:49;;;;;;;23.52;15.40;;;;;;;;;;5017084;28;20426;-75
2022/01/26 08:12:16;;;;;;;21.50;13.60;;;;;;;;;;5015878;28;20208;-75
2022/01/26 08:14:42;;;;;;;24.33;14.33;;;;;;;;;;5010554;28;20804;-75
2022/01/26 08:17:09;;;;;;;21.47;12.50;;;;;;;;;;5012293;28;20436;-75
2022/01/26 08:19:35;;;;;;;21.43;13.37;;;;;;;;;;5005361;28;20471;-76
2022/01/26 08:22:02;;;;;;;24.90;14.90;;;;;;;;;;5014171;28;20509;-75
2022/01/26 08:24:32;;;;;;;23.13;13.83;;;;;;;;;;5010687;28;20431;-76
2022/01/26 08:27:04;;;;;;;26.13;15.77;;;;;;;;;;5007628;28;20498;-75
2022/01/26 08:29:38;;;;;;;24.30;14.20;;;;;;;;;;4999124;28;20903;-76
2022/01/26 08:32:04;;;;;;;27.33;15.90;;;;;;;;;;5010128;28;20454;-76
2022/01/26 08:34:30;;;;;;;32.37;14.43;;;;;;;;;;5006015;28;20464;-76
2022/01/26 08:36:57;;;;;;;27.87;15.73;;;;;;;;;;5007534;28;20439;-75
2022/01/26 08:39:23;;;;;;;24.10;13.70;;;;;;;;;;5006996;28;20428;-75
2022/01/26 08:41:49;;;;;;;25.17;14.30;;;;;;;;;;5011862;28;20469;-76
2022/01/26 08:44:15;;;;;;;23.97;14.97;;;;;;;;;;5012747;28;20434;-76
2022/01/26 08:46:41;;;;;;;22.30;14.10;;;;;;;;;;5006358;28;20443;-76
2022/01/26 08:49:08;;;;;;;25.83;14.77;;;;;;;;;;5005331;28;20518;-76
2022/01/26 08:51:34;;;;;;;18.90;13.63;;;;;;;;;;5010962;28;20200;-76
2022/01/26 08:54:00;;;;;;;22.17;14.33;;;;;;;;;;5011802;28;20407;-77
2022/01/26 08:56:27;;;;;;;25.23;14.50;;;;;;;;;;5010641;28;20920;-75
2022/01/26 08:58:53;;;;;;;18.70;13.13;;;;;;;;;;5010861;28;20423;-76
2022/01/26 09:01:19;;;;;;;20.53;13.40;;;;;;;;;;5007490;28;20423;-76
2022/01/26 09:03:45;;;;;;;24.50;13.30;;;;;;;;;;5013227;28;20931;-76
2022/01/26 09:06:13;;;;;;;19.93;13.47;;;;;;;;;;5005429;28;20451;-76
2022/01/26 09:08:40;;;;;;;19.53;13.37;;;;;;;;;;5004706;28;20452;-76
2022/01/26 09:11:07;;;;;;;24.80;15.43;;;;;;;;;;5004887;28;20987;-76
2022/01/26 09:13:34;;;;;;;21.47;13.63;;;;;;;;;;5006916;28;20420;-75
2022/01/26 09:16:02;;;;;;;25.87;14.87;;;;;;;;;;5006186;28;20451;-76
2022/01/26 09:18:45;;;;;;;21.00;13.83;;;;;;;;;;5008496;28;20526;-75
2022/01/26 09:21:11;;;;;;;20.80;15.70;;;;;;;;;;5010302;28;20426;-76
2022/01/26 09:23:37;;;;;;;34.53;16.90;;;;;;;;;;5005479;28;20437;-77
2022/01/26 09:26:03;;;;;;;26.27;17.00;;;;;;;;;;5005461;28;20268;-76
2022/01/26 09:28:29;;;;;;;23.83;14.77;;;;;;;;;;5003353;28;20542;-76
2022/01/26 09:30:56;;;;;;;25.30;16.10;;;;;;;;;;5004848;28;20464;-76
2022/01/26 09:33:22;;;;;;;25.67;14.20;;;;;;;;;;5003708;28;20431;-76
2022/01/26 09:35:48;;;;;;;31.83;15.30;;;;;;;;;;5004125;28;20657;-76
2022/01/26 09:38:14;;;;;;;28.00;16.73;;;;;;;;;;5005391;28;20436;-76
2022/01/26 09:40:40;;;;;;;21.10;14.50;;;;;;;;;;5008721;28;20419;-76
2022/01/26 09:43:07;;;;;;;73.47;14.90;;;;;;;;;;5009350;28;20420;-76
2022/01/26 09:45:35;;;;;;;24.30;15.50;;;;;;;;;;5009952;28;20792;-75
2022/01/26 09:48:01;;;;;;;20.93;13.93;;;;;;;;;;5010608;28;20443;-75
2022/01/26 09:50:28;;;;;;;22.17;14.33;;;;;;;;;;5022636;28;20491;-76
2022/01/26 09:52:55;;;;;;;28.40;14.83;;;;;;;;;;5013323;28;20562;-76
2022/01/26 09:55:21;;;;;;;19.93;13.83;;;;;;;;;;5018087;28;20415;-76
2022/01/26 09:57:48;;;;;;;25.77;15.33;;;;;;;;;;5014465;28;20448;-76
2022/01/26 10:00:14;;;;;;;24.10;13.97;;;;;;;;;;5006904;28;20426;-76
2022/01/26 10:02:43;;;;;;;26.40;14.13;;;;;;;;;;5018440;28;20542;-76
2022/01/26 10:05:11;;;;;;;24.70;15.23;;;;;;;;;;5008315;28;20431;-75
2022/01/26 10:07:48;;;;;;;24.43;14.40;;;;;;;;;;5009621;28;20941;-75
2022/01/26 10:17:59;;;;;;;21.33;13.93;;;;;;;;;;5007199;28;20437;-76
2022/01/26 10:20:25;;;;;;;24.53;14.90;;;;;;;;;;5024244;28;20428;-76
2022/01/26 10:22:51;;;;;;;27.10;13.87;;;;;;;;;;5007113;28;20427;-75
2022/01/26 10:25:18;;;;;;;24.53;14.03;;;;;;;;;;5013299;28;20430;-75
2022/01/26 10:27:45;;;;;;;21.73;13.70;;;;;;;;;;5010310;28;20471;-76
2022/01/26 10:30:13;;;;;;;25.50;15.60;;;;;;;;;;5011354;28;20431;-75
2022/01/26 10:32:40;;;;;;;23.67;17.00;;;;;;;;;;5009682;28;20443;-75
2022/01/26 10:35:06;;;;;;;22.00;14.33;;;;;;;;;;5012736;28;20506;-75
2022/01/26 10:37:33;;;;;;;24.30;15.20;;;;;;;;;;5009132;28;20435;-75
2022/01/26 10:40:16;;;;;;;23.17;14.40;;;;;;;;;;5006263;28;20417;-76
2022/01/26 10:43:05;;;;;;;24.13;13.88;;;;;;;;;;5000266;28;20439;-76
2022/01/26 10:45:38;;;;;;;22.70;14.57;;;;;;;;;;5011808;28;20161;-76
2022/01/26 10:48:20;;;;;;;24.10;13.90;;;;;;;;;;5009199;28;20987;-76
2022/01/26 10:51:09;;;;;;;24.43;14.90;;;;;;;;;;5005148;28;20462;-76
2022/01/26 10:53:38;;;;;;;24.13;14.10;;;;;;;;;;5005773;28;20451;-76
2022/01/26 10:56:05;;;;;;;24.53;13.60;;;;;;;;;;5006906;28;20428;-76
2022/01/26 10:58:31;;;;;;;27.20;13.13;;;;;;;;;;5006968;28;20443;-76
2022/01/26 11:00:57;;;;;;;22.67;15.80;;;;;;;;;;5004857;28;20430;-76
2022/01/26 11:03:23;;;;;;;24.13;14.50;;;;;;;;;;5005998;28;20276;-76
2022/01/26 11:05:50;;;;;;;22.00;15.17;;;;;;;;;;5010552;28;20956;-77
2022/01/26 11:08:17;;;;;;;24.63;15.10;;;;;;;;;;5010795;28;20471;-77
2022/01/26 11:10:46;;;;;;;18.27;14.10;;;;;;;;;;5005772;28;20525;-76
2022/01/26 11:13:12;;;;;;;24.03;13.40;;;;;;;;;;5006927;28;20947;-78
2022/01/26 11:15:39;;;;;;;24.80;14.33;;;;;;;;;;5009224;28;20408;-76
2022/01/26 11:18:06;;;;;;;21.70;14.10;;;;;;;;;;5005166;28;20433;-76
2022/01/26 11:20:45;;;;;;;26.00;14.20;;;;;;;;;;5005671;28;20938;-76
2022/01/26 11:23:11;;;;;;;23.27;13.63;;;;;;;;;;5005106;28;20423;-77
2022/01/26 11:25:43;;;;;;;21.87;14.57;;;;;;;;;;5010505;28;20453;-76
2022/01/26 11:28:15;;;;;;;21.27;14.30;;;;;;;;;;5010050;28;20498;-78
2022/01/26 11:30:42;;;;;;;25.47;15.40;;;;;;;;;;5018240;28;20421;-75
2022/01/26 11:33:22;;;;;;;25.23;15.23;;;;;;;;;;5004569;28;20431;-76
2022/01/26 11:35:49;;;;;;;24.10;15.03;;;;;;;;;;5006049;28;20791;-76
2022/01/26 11:47:18;;;;;;;21.30;14.43;;;;;;;;;;5004531;28;20819;-76
2022/01/26 11:49:44;;;;;;;19.93;13.70;;;;;;;;;;5003885;28;20487;-76
2022/01/26 11:52:21;;;;;;;21.63;14.47;;;;;;;;;;5004929;28;20471;-76
2022/01/26 11:54:59;;;;;;;25.48;15.82;;;;;;;;;;5005512;28;20456;-76
2022/01/26 11:57:48;;;;;;;25.50;14.90;;;;;;;;;;5006176;28;20204;-76
2022/01/26 12:00:21;;;;;;;21.23;14.20;;;;;;;;;;5005943;28;20410;-77
2022/01/26 12:05:16;;;;;;;19.47;14.30;;;;;;;;;;5007117;28;20778;-76
2022/01/26 12:07:52;;;;;;;22.47;16.60;;;;;;;;;;5002002;28;20440;-76
2022/01/26 12:10:26;;;;;;;21.77;15.33;;;;;;;;;;5006023;28;20455;-76
2022/01/26 12:12:59;;;;;;;26.50;15.90;;;;;;;;;;5004391;28;20889;-75
2022/01/26 12:15:31;;;;;;;29.90;17.77;;;;;;;;;;5005342;28;20416;-76
2022/01/26 12:18:15;;;;;;;25.33;16.50;;;;;;;;;;5008133;28;20442;-77
2022/01/26 12:34:33;;;;;;;25.20;17.33;;;;;;;;;;5002497;28;20938;-78
2022/01/26 12:37:06;;;;;;;25.13;16.87;;;;;;;;;;5000014;28;20479;-76
2022/01/26 12:45:11;;;;;;;26.07;16.40;;;;;;;;;;4990078;28;20417;-77
2022/01/26 12:47:37;;;;;;;30.13;18.27;;;;;;;;;;5004158;28;20434;-78
2022/01/26 12:50:03;;;;;;;25.50;16.70;;;;;;;;;;5003744;28;20227;-77
2022/01/26 12:52:29;;;;;;;22.23;16.50;;;;;;;;;;5006318;28;20551;-76
2022/01/26 12:54:55;;;;;;;25.63;16.87;;;;;;;;;;5009273;28;20502;-75
2022/01/26 12:57:22;;;;;;;26.17;18.20;;;;;;;;;;5007007;28;20538;-75
2022/01/26 12:59:48;;;;;;;30.07;18.40;;;;;;;;;;5005687;28;20326;-78
2022/01/26 13:02:14;;;;;;;26.80;17.70;;;;;;;;;;5008471;28;20483;-77
2022/01/26 13:04:40;;;;;;;25.10;17.40;;;;;;;;;;5010917;28;20430;-76
2022/01/26 13:07:06;;;;;;;30.63;18.63;;;;;;;;;;5007395;28;20764;-75
2022/01/26 13:09:39;;;;;;;25.67;16.83;;;;;;;;;;5001275;28;20455;-76
2022/01/26 13:12:05;;;;;;;40.63;18.83;;;;;;;;;;5008478;28;20459;-76
2022/01/26 13:14:39;;;;;;;24.40;16.20;;;;;;;;;;5010995;28;20783;-76
2022/01/26 13:19:58;;;;;;;30.87;17.57;;;;;;;;;;5010837;28;20462;-77
2022/01/26 13:25:10;;;;;;;28.23;17.33;;;;;;;;;;5021902;28;20428;-76
2022/01/26 13:28:05;;;;;;;26.80;18.50;;;;;;;;;;5007202;28;20455;-77
2022/01/26 14:01:50;;;;;;;27.87;17.00;;;;;;;;;;5007739;28;20415;-76
2022/01/26 14:04:17;;;;;;;35.50;19.73;;;;;;;;;;5010315;28;20429;-76
2022/01/26 14:06:47;;;;;;;28.43;19.30;;;;;;;;;;5009864;28;20467;-77
2022/01/26 14:09:15;;;;;;;27.87;16.73;;;;;;;;;;5015943;28;20510;-77
2022/01/26 14:11:46;;;;;;;34.13;19.13;;;;;;;;;;5018877;28;20485;-77
2022/01/26 14:14:14;;;;;;;26.13;17.03;;;;;;;;;;5015565;28;20410;-78
2022/01/26 14:16:45;;;;;;;29.37;17.00;;;;;;;;;;5016621;28;20434;-78
2022/01/26 14:27:21;;;;;;;28.70;17.97;;;;;;;;;;5009744;28;20455;-77
2022/01/26 14:30:05;;;;;;;38.40;20.10;;;;;;;;;;5010054;28;20474;-78
2022/01/26 14:35:20;;;;;;;28.33;18.83;;;;;;;;;;5011030;28;20947;-77
2022/01/26 15:40:29;;;;;;;34.87;20.43;;;;;;;;;;5007364;28;20411;-78
2022/01/26 15:43:26;;;;;;;34.63;21.10;;;;;;;;;;5016797;28;20426;-78
2022/01/26 15:48:51;;;;;;;39.23;23.03;;;;;;;;;;5015877;28;20458;-78
2022/01/26 16:04:17;;;;;;;50.40;25.03;;;;;;;;;;5001838;28;20408;-77
2022/01/26 16:21:32;;;;;;;57.20;31.90;;;;;;;;;;5013576;28;20418;-77
2022/01/26 18:51:32;;;;;;;49.23;28.90;;;;;;;;;;5059689;28;20498;-81
2022/01/26 18:53:58;;;;;;;46.87;27.93;;;;;;;;;;5060061;28;20459;-80
2022/01/26 18:56:24;;;;;;;55.00;27.33;;;;;;;;;;5059754;28;20474;-79
2022/01/26 18:58:50;;;;;;;55.67;28.43;;;;;;;;;;5057806;28;20421;-81
2022/01/26 19:01:16;;;;;;;52.70;26.67;;;;;;;;;;5058294;28;20902;-81
2022/01/26 19:03:43;;;;;;;59.60;31.47;;;;;;;;;;5059197;28;20418;-79
2022/01/26 19:06:09;;;;;;;57.57;29.37;;;;;;;;;;5058743;28;20409;-81
2022/01/26 19:08:36;;;;;;;60.20;30.10;;;;;;;;;;5058845;28;20422;-81
2022/01/26 19:11:03;;;;;;;57.93;28.00;;;;;;;;;;5057912;28;20474;-80
2022/01/26 19:13:31;;;;;;;60.83;31.17;;;;;;;;;;5056418;28;20421;-80
2022/01/26 19:16:04;;;;;;;63.17;30.60;;;;;;;;;;5059604;28;20406;-81
2022/01/26 19:18:46;;;;;;;53.40;31.13;;;;;;;;;;5060485;28;20425;-81
2022/01/26 19:26:21;;;;;;;58.13;31.23;;;;;;;;;;5058638;28;20409;-80
2022/01/26 19:28:55;;;;;;;56.70;28.40;;;;;;;;;;5058658;28;20981;-81
2022/01/26 19:52:47;;;;;;;58.70;27.93;;;;;;;;;;5058586;28;20492;-81
2022/01/26 19:55:14;;;;;;;64.40;31.87;;;;;;;;;;5058766;28;20911;-80
2022/01/26 19:57:41;;;;;;;56.43;29.47;;;;;;;;;;5057108;28;20410;-80
2022/01/26 20:00:07;;;;;;;57.73;30.20;;;;;;;;;;5060714;28;20402;-79
2022/01/26 20:02:34;;;;;;;54.57;29.53;;;;;;;;;;5063551;28;20408;-80
2022/01/26 20:05:00;;;;;;;55.43;28.20;;;;;;;;;;5063767;28;20440;-79
2022/01/26 20:07:29;;;;;;;58.20;29.80;;;;;;;;;;5063806;28;20438;-80
2022/01/26 20:09:59;;;;;;;56.73;32.00;;;;;;;;;;5060824;28;20487;-80
2022/01/26 20:12:45;;;;;;;62.83;30.40;;;;;;;;;;5057340;28;20453;-80
2022/01/26 20:15:11;;;;;;;59.10;29.93;;;;;;;;;;5057454;28;20375;-80
2022/01/26 20:17:39;;;;;;;62.67;29.20;;;;;;;;;;5056016;28;20402;-78
2022/01/26 20:20:06;;;;;;;64.60;31.20;;;;;;;;;;5057491;28;20497;-81
2022/01/26 20:22:32;;;;;;;50.13;28.83;;;;;;;;;;5057673;28;20802;-81
2022/01/26 20:25:11;;;;;;;;;;;;;;;;;;;;;
2022/01/26 20:27:38;;;;;;;60.57;29.73;;;;;;;;;;5056953;28;20512;-79
2022/01/26 20:30:11;;;;;;;57.10;28.90;;;;;;;;;;5057791;28;20414;-81
2022/01/26 20:32:38;;;;;;;56.07;30.07;;;;;;;;;;5057978;28;20966;-80
2022/01/26 20:35:04;;;;;;;54.10;29.47;;;;;;;;;;5057273;28;20918;-81
2022/01/26 20:37:31;;;;;;;55.90;30.37;;;;;;;;;;5056698;28;20417;-81
2022/01/26 20:39:57;;;;;;;61.33;30.47;;;;;;;;;;5056259;28;20430;-81
2022/01/26 20:42:23;;;;;;;57.53;32.27;;;;;;;;;;5057167;28;20410;-80
2022/01/26 20:44:50;;;;;;;51.10;28.47;;;;;;;;;;5056124;28;20422;-81
2022/01/26 20:47:16;;;;;;;54.40;28.53;;;;;;;;;;5057996;28;20413;-80
2022/01/26 20:49:42;;;;;;;59.83;30.93;;;;;;;;;;5058342;28;20825;-78
2022/01/26 20:52:08;;;;;;;56.73;29.43;;;;;;;;;;5057304;28;20448;-81
2022/01/26 20:54:35;;;;;;;52.43;28.10;;;;;;;;;;5057186;28;20440;-81
2022/01/26 20:57:01;;;;;;;53.10;29.13;;;;;;;;;;5058596;28;20420;-79
2022/01/26 20:59:27;;;;;;;59.60;30.57;;;;;;;;;;5058647;28;20422;-81
2022/01/26 21:01:53;;;;;;;59.40;30.00;;;;;;;;;;5058408;28;20471;-80
2022/01/26 21:04:19;;;;;;;54.83;28.10;;;;;;;;;;5056982;28;20770;-81
2022/01/26 21:06:45;;;;;;;64.07;31.57;;;;;;;;;;5057774;28;20414;-80
2022/01/26 21:09:11;;;;;;;54.13;30.73;;;;;;;;;;5057209;28;20425;-81
2022/01/26 21:11:37;;;;;;;56.13;29.27;;;;;;;;;;5057125;28;20450;-81
2022/01/26 21:14:03;;;;;;;57.53;28.43;;;;;;;;;;5055339;28;20414;-81
2022/01/26 21:16:30;;;;;;;59.30;30.47;;;;;;;;;;5056247;28;20418;-81
2022/01/26 21:18:57;;;;;;;54.83;30.47;;;;;;;;;;5054490;28;20449;-81
2022/01/26 21:21:24;;;;;;;54.40;28.73;;;;;;;;;;5058324;28;20417;-81
2022/01/26 21:23:50;;;;;;;57.30;28.37;;;;;;;;;;5058485;28;20398;-80
2022/01/26 21:26:17;;;;;;;52.00;30.03;;;;;;;;;;5058091;28;20406;-81
2022/01/26 21:28:43;;;;;;;64.87;32.20;;;;;;;;;;5056538;28;20436;-80
2022/01/26 21:31:09;;;;;;;55.23;30.00;;;;;;;;;;5056198;28;20414;-80
2022/01/26 21:33:35;;;;;;;62.53;29.83;;;;;;;;;;5057210;28;20903;-80
2022/01/26 21:36:04;;;;;;;62.97;31.33;;;;;;;;;;5055059;28;20402;-80
2022/01/26 21:38:30;;;;;;;55.57;28.30;;;;;;;;;;5058236;28;20456;-81
2022/01/26 21:40:59;;;;;;;52.83;29.03;;;;;;;;;;5060226;28;20410;-81
2022/01/26 21:43:26;;;;;;;64.73;30.90;;;;;;;;;;5058562;28;20429;-80
2022/01/26 21:45:52;;;;;;;55.50;28.00;;;;;;;;;;5059401;28;20493;-81
2022/01/26 21:48:18;;;;;;;56.07;29.93;;;;;;;;;;5059652;28;20441;-80
2022/01/26 21:50:44;;;;;;;61.30;28.47;;;;;;;;;;5058385;28;20454;-81
2022/01/26 21:53:10;;;;;;;50.50;27.10;;;;;;;;;;5058087;28;20535;-81
2022/01/26 21:55:38;;;;;;;59.13;29.80;;;;;;;;;;5058458;28;20420;-80
2022/01/26 21:58:04;;;;;;;61.60;30.00;;;;;;;;;;5058391;28;20457;-80
2022/01/26 22:00:30;;;;;;;58.00;29.63;;;;;;;;;;5058468;28;20413;-81